createdAt,value
2022-11-05T00:00:00.695Z,9.2
2022-11-05T00:01:00.158Z,9.2
2022-11-05T00:02:00.578Z,9.2
2022-11-05T00:03:00.163Z,9.1
2022-11-05T00:04:00.305Z,9.1
2022-11-05T00:05:00.162Z,9.2
2022-11-05T00:06:00.165Z,9.2
2022-11-05T00:07:06.318Z,9.2
2022-11-05T00:08:01.697Z,9.2
2022-11-05T00:09:00.193Z,9.1
2022-11-05T00:10:05.701Z,9.1
2022-11-05T00:11:00.289Z,9.1
2022-11-05T00:12:02.102Z,9.1
2022-11-05T00:13:00.171Z,9.0
2022-11-05T00:14:00.154Z,9.0
2022-11-05T00:15:00.156Z,9.0
2022-11-05T00:16:00.178Z,9.0
2022-11-05T00:17:00.156Z,9.1
2022-11-05T00:18:00.287Z,9.1
2022-11-05T00:19:00.166Z,9.0
2022-11-05T00:20:00.392Z,9.0
2022-11-05T00:21:00.203Z,9.0
2022-11-05T00:22:00.173Z,9.0
2022-11-05T00:23:00.688Z,8.9
2022-11-05T00:24:00.152Z,8.9
2022-11-05T00:25:00.161Z,8.9
2022-11-05T00:26:01.396Z,8.9
2022-11-05T00:27:00.151Z,8.8
2022-11-05T00:28:01.195Z,8.8
2022-11-05T00:29:00.164Z,8.8
2022-11-05T00:30:00.164Z,8.8
2022-11-05T00:31:03.223Z,8.8
2022-11-05T00:32:00.327Z,8.8
2022-11-05T00:33:00.635Z,8.7
2022-11-05T00:34:00.160Z,8.7
2022-11-05T00:35:00.154Z,8.7
2022-11-05T00:36:01.761Z,8.7
2022-11-05T00:37:00.152Z,8.6
2022-11-05T00:38:00.150Z,8.6
2022-11-05T00:39:00.150Z,8.6
2022-11-05T00:40:00.471Z,8.6
2022-11-05T00:41:00.351Z,8.6
2022-11-05T00:42:00.158Z,8.6
2022-11-05T00:43:00.256Z,8.5
2022-11-05T00:44:00.158Z,8.5
2022-11-05T00:45:00.153Z,8.5
2022-11-05T00:46:00.166Z,8.5
2022-11-05T00:47:00.153Z,8.5
2022-11-05T00:48:00.162Z,8.5
2022-11-05T00:49:00.147Z,8.3
2022-11-05T00:50:00.153Z,8.3
2022-11-05T00:51:00.170Z,8.4
2022-11-05T00:52:00.157Z,8.4
2022-11-05T00:53:00.149Z,8.3
2022-11-05T00:54:00.172Z,8.3
2022-11-05T00:55:00.156Z,8.3
2022-11-05T00:56:00.484Z,8.3
2022-11-05T00:57:04.499Z,8.3
2022-11-05T00:58:01.201Z,8.3
2022-11-05T00:59:00.152Z,8.3
2022-11-05T01:00:00.205Z,8.3
2022-11-05T01:01:01.082Z,8.3
2022-11-05T01:02:00.283Z,8.3
2022-11-05T01:03:01.138Z,8.3
2022-11-05T01:04:00.153Z,8.3
2022-11-05T01:05:00.148Z,8.2
2022-11-05T01:06:08.796Z,8.2
2022-11-05T01:07:00.146Z,8.2
2022-11-05T01:08:00.544Z,8.2
2022-11-05T01:09:00.152Z,8.2
2022-11-05T01:10:00.203Z,8.2
2022-11-05T01:11:06.204Z,8.2
2022-11-05T01:12:00.164Z,8.2
2022-11-05T01:13:00.173Z,8.1
2022-11-05T01:14:04.666Z,8.1
2022-11-05T01:15:00.176Z,8.1
2022-11-05T01:16:03.791Z,8.1
2022-11-05T01:17:00.155Z,8.0
2022-11-05T01:18:00.161Z,8.0
2022-11-05T01:19:00.768Z,8.0
2022-11-05T01:20:00.270Z,8.0
2022-11-05T01:21:08.344Z,7.9
2022-11-05T01:22:00.152Z,7.9
2022-11-05T01:23:00.178Z,8.0
2022-11-05T01:24:00.278Z,8.0
2022-11-05T01:25:00.174Z,7.9
2022-11-05T01:26:00.161Z,7.9
2022-11-05T01:27:00.154Z,7.9
2022-11-05T01:28:00.662Z,7.9
2022-11-05T01:29:00.322Z,7.9
2022-11-05T01:30:00.164Z,7.9
2022-11-05T01:31:00.159Z,7.8
2022-11-05T01:32:00.158Z,7.8
2022-11-05T01:33:00.239Z,7.8
2022-11-05T01:34:00.162Z,7.8
2022-11-05T01:35:00.345Z,7.8
2022-11-05T01:36:00.248Z,7.8
2022-11-05T01:37:00.156Z,7.8
2022-11-05T01:38:00.167Z,7.8
2022-11-05T01:39:00.148Z,7.7
2022-11-05T01:40:00.176Z,7.7
2022-11-05T01:41:00.179Z,7.8
2022-11-05T01:42:00.159Z,7.8
2022-11-05T01:43:00.162Z,7.8
2022-11-05T01:44:00.154Z,7.8
2022-11-05T01:45:02.569Z,7.7
2022-11-05T01:46:00.226Z,7.7
2022-11-05T01:47:00.294Z,7.8
2022-11-05T01:48:05.188Z,7.8
2022-11-05T01:49:05.805Z,7.7
2022-11-05T01:50:02.407Z,7.7
2022-11-05T01:51:04.010Z,7.5
2022-11-05T01:52:02.569Z,7.5
2022-11-05T01:53:06.854Z,7.6
2022-11-05T01:54:04.791Z,7.6
2022-11-05T01:55:00.973Z,7.7
2022-11-05T01:56:10.093Z,7.7
2022-11-05T01:57:02.547Z,7.6
2022-11-05T01:58:01.318Z,7.6
2022-11-05T01:59:03.892Z,7.5
2022-11-05T02:00:00.373Z,7.5
2022-11-05T02:01:00.285Z,7.6
2022-11-05T02:02:01.239Z,7.6
2022-11-05T02:03:00.534Z,7.6
2022-11-05T02:04:03.301Z,7.6
2022-11-05T02:05:02.447Z,7.5
2022-11-05T02:06:01.649Z,7.5
2022-11-05T02:07:00.824Z,7.5
2022-11-05T02:08:00.333Z,7.5
2022-11-05T02:09:04.754Z,7.5
2022-11-05T02:10:01.951Z,7.5
2022-11-05T02:11:00.237Z,7.4
2022-11-05T02:12:00.517Z,7.4
2022-11-05T02:13:00.307Z,7.5
2022-11-05T02:14:00.492Z,7.5
2022-11-05T02:15:00.208Z,7.5
2022-11-05T02:16:00.157Z,7.5
2022-11-05T02:17:04.602Z,7.5
2022-11-05T02:18:03.414Z,7.5
2022-11-05T02:19:08.494Z,7.4
2022-11-05T02:20:00.192Z,7.4
2022-11-05T02:21:10.092Z,7.4
2022-11-05T02:22:10.099Z,7.4
2022-11-05T02:23:10.502Z,7.4
2022-11-05T02:24:01.177Z,7.4
2022-11-05T02:25:10.122Z,7.4
2022-11-05T02:26:10.099Z,7.4
2022-11-05T02:27:00.154Z,7.4
2022-11-05T02:28:10.101Z,7.4
2022-11-05T02:29:10.121Z,7.4
2022-11-05T02:30:03.973Z,7.4
2022-11-05T02:31:03.412Z,7.3
2022-11-05T02:32:05.305Z,7.3
2022-11-05T02:33:10.417Z,7.3
2022-11-05T02:34:00.138Z,7.3
2022-11-05T02:35:08.430Z,7.2
2022-11-05T02:36:10.110Z,7.2
2022-11-05T02:37:09.037Z,7.2
2022-11-05T02:38:07.178Z,7.2
2022-11-05T02:39:10.139Z,7.1
2022-11-05T02:40:00.160Z,7.1
2022-11-05T02:41:10.101Z,7.1
2022-11-05T02:42:07.076Z,7.1
2022-11-05T02:43:06.117Z,7.2
2022-11-05T02:44:07.531Z,7.2
2022-11-05T02:45:10.113Z,7.1
2022-11-05T02:46:05.571Z,7.1
2022-11-05T02:47:14.076Z,7.2
2022-11-05T02:48:06.550Z,7.2
2022-11-05T02:49:03.410Z,7.2
2022-11-05T02:50:05.779Z,7.2
2022-11-05T02:51:07.827Z,7.1
2022-11-05T02:52:05.366Z,7.1
2022-11-05T02:53:00.141Z,7.1
2022-11-05T02:54:10.096Z,7.1
2022-11-05T02:55:10.100Z,7.2
2022-11-05T02:56:02.569Z,7.2
2022-11-05T02:57:00.986Z,7.2
2022-11-05T02:58:01.382Z,7.2
2022-11-05T02:59:00.181Z,7.1
2022-11-05T03:00:01.047Z,7.1
2022-11-05T03:01:00.501Z,7.1
2022-11-05T03:02:01.731Z,7.1
2022-11-05T03:03:01.033Z,7.0
2022-11-05T03:04:02.520Z,7.0
2022-11-05T03:05:01.239Z,7.0
2022-11-05T03:06:07.688Z,7.0
2022-11-05T03:07:10.091Z,6.9
2022-11-05T03:08:05.726Z,6.9
2022-11-05T03:09:07.173Z,6.9
2022-11-05T03:10:10.101Z,6.9
2022-11-05T03:11:04.344Z,6.9
2022-11-05T03:12:10.107Z,6.9
2022-11-05T03:13:08.568Z,6.9
2022-11-05T03:14:10.089Z,6.9
2022-11-05T03:15:06.742Z,6.9
2022-11-05T03:16:04.979Z,6.9
2022-11-05T03:17:07.828Z,6.9
2022-11-05T03:18:06.005Z,6.9
2022-11-05T03:19:06.658Z,6.9
2022-11-05T03:20:00.147Z,6.9
2022-11-05T03:21:10.093Z,6.9
2022-11-05T03:22:03.475Z,6.9
2022-11-05T03:23:08.326Z,6.8
2022-11-05T03:24:06.614Z,6.8
2022-11-05T03:25:02.922Z,6.8
2022-11-05T03:26:10.087Z,6.8
2022-11-05T03:27:10.091Z,6.9
2022-11-05T03:28:04.284Z,6.9
2022-11-05T03:29:02.327Z,6.9
2022-11-05T03:30:02.124Z,6.9
2022-11-05T03:31:00.358Z,6.9
2022-11-05T03:32:02.005Z,6.9
2022-11-05T03:33:02.936Z,6.9
2022-11-05T03:34:01.762Z,6.9
2022-11-05T03:35:02.863Z,6.8
2022-11-05T03:36:02.538Z,6.8
2022-11-05T03:37:01.503Z,6.9
2022-11-05T03:38:02.866Z,6.9
2022-11-05T03:39:01.957Z,6.8
2022-11-05T03:40:02.078Z,6.8
2022-11-05T03:41:02.772Z,6.8
2022-11-05T03:42:02.543Z,6.8
2022-11-05T03:43:01.761Z,6.8
2022-11-05T03:44:02.997Z,6.8
2022-11-05T03:45:03.262Z,6.8
2022-11-05T03:46:02.980Z,6.8
2022-11-05T03:47:03.528Z,6.7
2022-11-05T03:48:01.307Z,6.7
2022-11-05T03:49:02.032Z,6.7
2022-11-05T03:50:07.591Z,6.7
2022-11-05T03:51:10.091Z,6.7
2022-11-05T03:52:06.242Z,6.7
2022-11-05T03:53:03.333Z,6.8
2022-11-05T03:54:01.624Z,6.8
2022-11-05T03:55:00.254Z,6.7
2022-11-05T03:56:07.889Z,6.7
2022-11-05T03:57:03.805Z,6.6
2022-11-05T03:58:00.551Z,6.6
2022-11-05T03:59:01.065Z,6.6
2022-11-05T04:00:00.205Z,6.6
2022-11-05T04:01:01.197Z,6.7
2022-11-05T04:02:01.462Z,6.7
2022-11-05T04:03:00.242Z,6.6
2022-11-05T04:04:00.165Z,6.6
2022-11-05T04:05:00.162Z,6.6
2022-11-05T04:06:00.559Z,6.6
2022-11-05T04:07:00.153Z,6.5
2022-11-05T04:08:00.168Z,6.5
2022-11-05T04:09:00.158Z,6.5
2022-11-05T04:10:00.209Z,6.5
2022-11-05T04:11:00.159Z,6.5
2022-11-05T04:12:00.160Z,6.5
2022-11-05T04:13:00.172Z,6.5
2022-11-05T04:14:00.157Z,6.5
2022-11-05T04:15:00.211Z,6.4
2022-11-05T04:16:00.158Z,6.4
2022-11-05T04:17:00.233Z,6.5
2022-11-05T04:18:00.154Z,6.5
2022-11-05T04:19:00.154Z,6.4
2022-11-05T04:20:00.172Z,6.4
2022-11-05T04:21:00.159Z,6.4
2022-11-05T04:22:00.160Z,6.4
2022-11-05T04:23:01.129Z,6.4
2022-11-05T04:24:00.146Z,6.4
2022-11-05T04:25:00.159Z,6.5
2022-11-05T04:26:00.147Z,6.5
2022-11-05T04:27:00.153Z,6.3
2022-11-05T04:28:00.151Z,6.3
2022-11-05T04:29:03.790Z,6.3
2022-11-05T04:30:00.663Z,6.3
2022-11-05T04:31:00.159Z,6.4
2022-11-05T04:32:00.168Z,6.4
2022-11-05T04:33:02.228Z,6.4
2022-11-05T04:34:00.216Z,6.4
2022-11-05T04:35:00.165Z,6.4
2022-11-05T04:36:00.150Z,6.4
2022-11-05T04:37:00.156Z,6.2
2022-11-05T04:38:00.613Z,6.2
2022-11-05T04:39:00.209Z,6.2
2022-11-05T04:40:00.165Z,6.2
2022-11-05T04:41:10.094Z,6.2
2022-11-05T04:42:00.155Z,6.2
2022-11-05T04:43:00.207Z,6.2
2022-11-05T04:44:00.159Z,6.2
2022-11-05T04:45:00.154Z,6.2
2022-11-05T04:46:00.158Z,6.2
2022-11-05T04:47:00.156Z,6.2
2022-11-05T04:48:01.062Z,6.2
2022-11-05T04:49:00.189Z,6.1
2022-11-05T04:50:00.173Z,6.1
2022-11-05T04:51:00.188Z,6.0
2022-11-05T04:52:00.181Z,6.0
2022-11-05T04:53:00.172Z,6.1
2022-11-05T04:54:00.164Z,6.1
2022-11-05T04:55:00.146Z,6.1
2022-11-05T04:56:08.220Z,6.1
2022-11-05T04:57:00.168Z,6.1
2022-11-05T04:58:00.180Z,6.1
2022-11-05T04:59:00.155Z,6.2
2022-11-05T05:00:00.172Z,6.2
2022-11-05T05:01:00.229Z,6.2
2022-11-05T05:02:00.231Z,6.2
2022-11-05T05:03:00.171Z,6.2
2022-11-05T05:04:00.161Z,6.2
2022-11-05T05:05:00.170Z,6.2
2022-11-05T05:06:03.780Z,6.2
2022-11-05T05:07:00.155Z,6.2
2022-11-05T05:08:00.723Z,6.2
2022-11-05T05:09:00.157Z,6.1
2022-11-05T05:10:00.443Z,6.1
2022-11-05T05:11:01.444Z,6.0
2022-11-05T05:12:00.168Z,6.0
2022-11-05T05:13:00.161Z,6.0
2022-11-05T05:14:00.155Z,6.0
2022-11-05T05:15:00.156Z,6.1
2022-11-05T05:16:04.136Z,6.1
2022-11-05T05:17:00.185Z,6.0
2022-11-05T05:18:00.151Z,6.0
2022-11-05T05:19:00.200Z,6.0
2022-11-05T05:20:00.159Z,6.0
2022-11-05T05:21:00.637Z,5.9
2022-11-05T05:22:00.158Z,5.9
2022-11-05T05:23:00.158Z,5.9
2022-11-05T05:24:00.488Z,5.9
2022-11-05T05:25:00.197Z,5.9
2022-11-05T05:26:00.165Z,5.9
2022-11-05T05:27:00.155Z,5.8
2022-11-05T05:28:00.158Z,5.8
2022-11-05T05:29:00.239Z,5.8
2022-11-05T05:30:00.188Z,5.8
2022-11-05T05:31:00.578Z,5.9
2022-11-05T05:32:00.153Z,5.9
2022-11-05T05:33:00.794Z,6.0
2022-11-05T05:34:00.348Z,6.0
2022-11-05T05:35:00.152Z,6.1
2022-11-05T05:36:00.169Z,6.1
2022-11-05T05:37:00.211Z,5.9
2022-11-05T05:38:00.150Z,5.9
2022-11-05T05:39:00.186Z,5.8
2022-11-05T05:40:00.171Z,5.8
2022-11-05T05:41:00.200Z,5.8
2022-11-05T05:42:00.176Z,5.8
2022-11-05T05:43:00.158Z,5.8
2022-11-05T05:44:00.162Z,5.8
2022-11-05T05:45:00.154Z,5.9
2022-11-05T05:46:00.839Z,5.9
2022-11-05T05:47:00.161Z,6.0
2022-11-05T05:48:00.163Z,6.0
2022-11-05T05:49:00.172Z,5.8
2022-11-05T05:50:00.159Z,5.8
2022-11-05T05:51:00.972Z,5.8
2022-11-05T05:52:00.182Z,5.8
2022-11-05T05:53:00.163Z,5.8
2022-11-05T05:54:00.152Z,5.8
2022-11-05T05:55:00.163Z,5.8
2022-11-05T05:56:00.552Z,5.8
2022-11-05T05:57:00.156Z,5.9
2022-11-05T05:58:00.146Z,5.9
2022-11-05T05:59:00.161Z,5.8
2022-11-05T06:00:00.157Z,5.8
2022-11-05T06:01:01.456Z,5.8
2022-11-05T06:02:00.257Z,5.8
2022-11-05T06:03:00.311Z,5.9
2022-11-05T06:04:00.193Z,5.9
2022-11-05T06:05:00.175Z,5.9
2022-11-05T06:06:01.078Z,5.9
2022-11-05T06:07:00.149Z,5.9
2022-11-05T06:08:00.153Z,5.9
2022-11-05T06:09:00.181Z,5.9
2022-11-05T06:10:00.202Z,5.9
2022-11-05T06:11:00.907Z,5.8
2022-11-05T06:12:00.153Z,5.8
2022-11-05T06:13:00.228Z,5.7
2022-11-05T06:14:00.154Z,5.7
2022-11-05T06:15:00.152Z,5.7
2022-11-05T06:16:00.553Z,5.7
2022-11-05T06:17:00.153Z,5.6
2022-11-05T06:18:00.146Z,5.6
2022-11-05T06:19:00.709Z,5.7
2022-11-05T06:20:00.192Z,5.7
2022-11-05T06:21:01.034Z,5.7
2022-11-05T06:22:00.162Z,5.7
2022-11-05T06:23:00.165Z,5.7
2022-11-05T06:24:00.497Z,5.7
2022-11-05T06:25:00.173Z,5.8
2022-11-05T06:26:01.004Z,5.8
2022-11-05T06:27:00.168Z,5.7
2022-11-05T06:28:00.150Z,5.7
2022-11-05T06:29:00.171Z,5.7
2022-11-05T06:30:00.183Z,5.7
2022-11-05T06:31:00.390Z,5.6
2022-11-05T06:32:00.156Z,5.6
2022-11-05T06:33:01.224Z,5.7
2022-11-05T06:34:00.157Z,5.7
2022-11-05T06:35:00.153Z,5.6
2022-11-05T06:36:00.824Z,5.6
2022-11-05T06:37:00.144Z,5.6
2022-11-05T06:38:00.590Z,5.6
2022-11-05T06:39:00.148Z,5.6
2022-11-05T06:40:00.172Z,5.6
2022-11-05T06:41:03.317Z,5.7
2022-11-05T06:42:19.002Z,5.7
2022-11-05T06:43:00.152Z,5.7
2022-11-05T06:44:00.153Z,5.7
2022-11-05T06:45:00.151Z,5.6
2022-11-05T06:46:01.072Z,5.6
2022-11-05T06:47:00.153Z,5.7
2022-11-05T06:48:00.156Z,5.7
2022-11-05T06:49:00.163Z,5.7
2022-11-05T06:50:00.157Z,5.7
2022-11-05T06:51:00.350Z,5.6
2022-11-05T06:52:00.153Z,5.6
2022-11-05T06:53:01.347Z,5.6
2022-11-05T06:54:00.158Z,5.6
2022-11-05T06:55:00.147Z,5.6
2022-11-05T06:56:02.177Z,5.6
2022-11-05T06:57:00.154Z,5.6
2022-11-05T06:58:00.169Z,5.6
2022-11-05T06:59:00.238Z,5.6
2022-11-05T07:00:04.514Z,5.6
2022-11-05T07:01:01.374Z,5.6
2022-11-05T07:02:00.276Z,5.6
2022-11-05T07:03:04.104Z,5.6
2022-11-05T07:04:00.463Z,5.6
2022-11-05T07:05:00.161Z,5.6
2022-11-05T07:06:01.057Z,5.6
2022-11-05T07:07:00.296Z,5.6
2022-11-05T07:08:00.152Z,5.6
2022-11-05T07:09:00.643Z,5.6
2022-11-05T07:10:00.148Z,5.6
2022-11-05T07:11:00.175Z,5.6
2022-11-05T07:12:00.151Z,5.6
2022-11-05T07:13:05.053Z,5.6
2022-11-05T07:14:00.161Z,5.6
2022-11-05T07:15:00.168Z,5.6
2022-11-05T07:16:00.153Z,5.6
2022-11-05T07:17:00.152Z,5.6
2022-11-05T07:18:00.503Z,5.6
2022-11-05T07:19:00.196Z,5.6
2022-11-05T07:20:00.295Z,5.6
2022-11-05T07:21:00.212Z,5.6
2022-11-05T07:22:00.160Z,5.6
2022-11-05T07:23:01.191Z,5.7
2022-11-05T07:24:00.248Z,5.7
2022-11-05T07:25:00.229Z,5.6
2022-11-05T07:26:00.155Z,5.6
2022-11-05T07:27:00.148Z,5.6
2022-11-05T07:28:00.787Z,5.6
2022-11-05T07:29:00.196Z,5.6
2022-11-05T07:30:00.177Z,5.6
2022-11-05T07:31:00.174Z,5.7
2022-11-05T07:32:00.148Z,5.7
2022-11-05T07:33:00.317Z,5.6
2022-11-05T07:34:00.159Z,5.6
2022-11-05T07:35:00.180Z,5.6
2022-11-05T07:36:00.162Z,5.6
2022-11-05T07:37:00.215Z,5.7
2022-11-05T07:38:00.167Z,5.7
2022-11-05T07:39:00.736Z,5.6
2022-11-05T07:40:00.169Z,5.6
2022-11-05T07:41:00.490Z,5.7
2022-11-05T07:42:00.145Z,5.7
2022-11-05T07:43:00.377Z,5.7
2022-11-05T07:44:00.150Z,5.7
2022-11-05T07:45:00.166Z,5.7
2022-11-05T07:46:00.154Z,5.7
2022-11-05T07:47:00.162Z,5.8
2022-11-05T07:48:00.867Z,5.8
2022-11-05T07:49:00.154Z,5.7
2022-11-05T07:50:00.151Z,5.7
2022-11-05T07:51:00.148Z,5.7
2022-11-05T07:52:00.149Z,5.7
2022-11-05T07:53:01.009Z,5.8
2022-11-05T07:54:00.211Z,5.8
2022-11-05T07:55:00.147Z,5.8
2022-11-05T07:56:00.146Z,5.8
2022-11-05T07:57:00.154Z,5.9
2022-11-05T07:58:00.586Z,5.9
2022-11-05T07:59:00.213Z,6.0
2022-11-05T08:00:00.164Z,6.0
2022-11-05T08:01:00.250Z,6.1
2022-11-05T08:02:00.482Z,6.1
2022-11-05T08:03:07.821Z,6.0
2022-11-05T08:04:00.155Z,6.0
2022-11-05T08:05:00.156Z,6.0
2022-11-05T08:06:00.165Z,6.0
2022-11-05T08:07:00.149Z,6.1
2022-11-05T08:08:00.153Z,6.1
2022-11-05T08:09:00.155Z,6.3
2022-11-05T08:10:00.461Z,6.3
2022-11-05T08:11:04.272Z,6.3
2022-11-05T08:12:03.160Z,6.3
2022-11-05T08:13:00.613Z,6.3
2022-11-05T08:14:00.149Z,6.3
2022-11-05T08:15:00.159Z,6.3
2022-11-05T08:16:00.410Z,6.3
2022-11-05T08:17:00.153Z,6.2
2022-11-05T08:18:01.157Z,6.2
2022-11-05T08:19:00.161Z,6.2
2022-11-05T08:20:00.181Z,6.2
2022-11-05T08:21:01.520Z,6.3
2022-11-05T08:22:00.161Z,6.3
2022-11-05T08:23:00.203Z,6.4
2022-11-05T08:24:00.193Z,6.4
2022-11-05T08:25:04.088Z,6.5
2022-11-05T08:26:01.533Z,6.5
2022-11-05T08:27:00.161Z,6.6
2022-11-05T08:28:01.328Z,6.6
2022-11-05T08:29:00.169Z,6.5
2022-11-05T08:30:00.161Z,6.5
2022-11-05T08:31:00.154Z,6.6
2022-11-05T08:32:00.151Z,6.6
2022-11-05T08:33:01.627Z,6.7
2022-11-05T08:34:02.702Z,6.7
2022-11-05T08:35:00.253Z,6.8
2022-11-05T08:36:00.738Z,6.8
2022-11-05T08:37:00.857Z,6.9
2022-11-05T08:38:00.864Z,6.9
2022-11-05T08:39:00.146Z,7.0
2022-11-05T08:40:00.163Z,7.0
2022-11-05T08:41:00.161Z,7.0
2022-11-05T08:42:00.202Z,7.0
2022-11-05T08:43:01.031Z,7.1
2022-11-05T08:44:00.162Z,7.1
2022-11-05T08:45:00.182Z,7.1
2022-11-05T08:46:00.318Z,7.1
2022-11-05T08:47:00.164Z,7.1
2022-11-05T08:48:01.089Z,7.1
2022-11-05T08:49:00.145Z,7.2
2022-11-05T08:50:00.164Z,7.2
2022-11-05T08:51:00.158Z,7.3
2022-11-05T08:52:00.162Z,7.3
2022-11-05T08:53:00.191Z,7.3
2022-11-05T08:54:00.195Z,7.3
2022-11-05T08:55:00.184Z,7.5
2022-11-05T08:56:00.160Z,7.5
2022-11-05T08:57:00.154Z,7.6
2022-11-05T08:58:01.287Z,7.6
2022-11-05T08:59:00.194Z,7.7
2022-11-05T09:00:00.163Z,7.7
2022-11-05T09:01:05.237Z,7.7
2022-11-05T09:02:00.358Z,7.7
2022-11-05T09:03:00.944Z,7.7
2022-11-05T09:04:00.172Z,7.7
2022-11-05T09:05:00.163Z,7.8
2022-11-05T09:06:00.163Z,7.8
2022-11-05T09:07:00.155Z,7.9
2022-11-05T09:08:01.544Z,7.9
2022-11-05T09:09:00.154Z,7.9
2022-11-05T09:10:00.157Z,7.9
2022-11-05T09:11:00.168Z,8.1
2022-11-05T09:12:12.764Z,8.1
2022-11-05T09:13:00.180Z,8.1
2022-11-05T09:14:00.150Z,8.1
2022-11-05T09:15:00.152Z,8.3
2022-11-05T09:16:00.206Z,8.3
2022-11-05T09:17:00.155Z,8.2
2022-11-05T09:18:00.539Z,8.2
2022-11-05T09:19:00.150Z,8.3
2022-11-05T09:20:00.541Z,8.3
2022-11-05T09:21:00.165Z,8.4
2022-11-05T09:22:00.226Z,8.4
2022-11-05T09:23:00.150Z,8.5
2022-11-05T09:24:00.159Z,8.5
2022-11-05T09:25:00.167Z,8.5
2022-11-05T09:26:00.159Z,8.5
2022-11-05T09:27:00.156Z,8.6
2022-11-05T09:28:14.665Z,8.6
2022-11-05T09:29:00.265Z,8.6
2022-11-05T09:30:00.269Z,8.6
2022-11-05T09:31:03.795Z,8.6
2022-11-05T09:32:00.155Z,8.6
2022-11-05T09:33:00.156Z,8.7
2022-11-05T09:34:00.152Z,8.7
2022-11-05T09:35:00.176Z,8.8
2022-11-05T09:36:00.515Z,8.8
2022-11-05T09:37:00.269Z,8.8
2022-11-05T09:38:01.225Z,8.8
2022-11-05T09:39:00.151Z,8.9
2022-11-05T09:40:00.216Z,8.9
2022-11-05T09:41:01.166Z,9.0
2022-11-05T09:42:03.399Z,9.0
2022-11-05T09:43:00.506Z,9.1
2022-11-05T09:44:02.379Z,9.1
2022-11-05T09:45:02.667Z,9.1
2022-11-05T09:46:03.473Z,9.1
2022-11-05T09:47:03.936Z,9.1
2022-11-05T09:48:07.573Z,9.1
2022-11-05T09:49:03.573Z,9.1
2022-11-05T09:50:02.166Z,9.1
2022-11-05T09:51:00.271Z,9.2
2022-11-05T09:52:00.803Z,9.2
2022-11-05T09:53:00.633Z,9.4
2022-11-05T09:54:00.455Z,9.4
2022-11-05T09:55:02.025Z,9.4
2022-11-05T09:56:00.254Z,9.4
2022-11-05T09:57:01.234Z,9.4
2022-11-05T09:58:01.961Z,9.4
2022-11-05T09:59:02.155Z,9.4
2022-11-05T10:00:01.395Z,9.4
2022-11-05T10:01:01.840Z,9.4
2022-11-05T10:02:03.551Z,9.4
2022-11-05T10:03:03.147Z,9.6
2022-11-05T10:04:04.761Z,9.6
2022-11-05T10:05:09.442Z,9.7
2022-11-05T10:06:06.489Z,9.7
2022-11-05T10:07:01.609Z,9.7
2022-11-05T10:08:03.537Z,9.7
2022-11-05T10:09:04.271Z,9.8
2022-11-05T10:10:03.052Z,9.8
2022-11-05T10:11:06.089Z,9.7
2022-11-05T10:12:06.450Z,9.7
2022-11-05T10:13:03.583Z,9.9
2022-11-05T10:14:05.642Z,9.9
2022-11-05T10:15:10.103Z,9.9
2022-11-05T10:16:03.429Z,9.9
2022-11-05T10:17:03.173Z,9.9
2022-11-05T10:18:04.978Z,9.9
2022-11-05T10:19:04.833Z,10.0
2022-11-05T10:20:07.134Z,10.0
2022-11-05T10:21:00.399Z,10.0
2022-11-05T10:22:07.485Z,10.0
2022-11-05T10:23:04.733Z,10.1
2022-11-05T10:24:00.379Z,10.1
2022-11-05T10:25:00.174Z,10.1
2022-11-05T10:26:10.094Z,10.1
2022-11-05T10:27:00.388Z,10.1
2022-11-05T10:28:02.212Z,10.1
2022-11-05T10:29:00.154Z,10.2
2022-11-05T10:30:00.409Z,10.2
2022-11-05T10:31:03.603Z,10.2
2022-11-05T10:32:01.989Z,10.2
2022-11-05T10:33:03.005Z,10.3
2022-11-05T10:34:02.888Z,10.3
2022-11-05T10:35:01.364Z,10.4
2022-11-05T10:36:03.286Z,10.4
2022-11-05T10:37:00.247Z,10.3
2022-11-05T10:38:00.619Z,10.3
2022-11-05T10:39:08.971Z,10.3
2022-11-05T10:40:00.174Z,10.3
2022-11-05T10:41:10.097Z,10.4
2022-11-05T10:42:00.154Z,10.4
2022-11-05T10:43:10.501Z,10.4
2022-11-05T10:44:13.479Z,10.4
2022-11-05T10:45:10.102Z,10.4
2022-11-05T10:46:10.088Z,10.4
2022-11-05T10:47:01.155Z,10.5
2022-11-05T10:48:00.134Z,10.5
2022-11-05T10:49:10.089Z,10.5
2022-11-05T10:50:03.616Z,10.5
2022-11-05T10:51:00.247Z,10.6
2022-11-05T10:52:10.100Z,10.6
2022-11-05T10:53:01.655Z,10.7
2022-11-05T10:54:04.082Z,10.7
2022-11-05T10:55:01.584Z,10.5
2022-11-05T10:56:00.237Z,10.5
2022-11-05T10:57:10.096Z,10.6
2022-11-05T10:58:10.093Z,10.6
2022-11-05T10:59:00.320Z,10.6
2022-11-05T11:00:10.117Z,10.6
2022-11-05T11:01:01.956Z,10.5
2022-11-05T11:02:03.295Z,10.5
2022-11-05T11:03:01.722Z,10.7
2022-11-05T11:04:05.486Z,10.7
2022-11-05T11:05:00.322Z,10.7
2022-11-05T11:06:01.820Z,10.7
2022-11-05T11:07:01.126Z,10.6
2022-11-05T11:08:03.408Z,10.6
2022-11-05T11:09:01.578Z,10.7
2022-11-05T11:10:00.294Z,10.7
2022-11-05T11:11:03.803Z,10.7
2022-11-05T11:12:03.080Z,10.7
2022-11-05T11:13:00.920Z,10.7
2022-11-05T11:14:03.684Z,10.7
2022-11-05T11:15:03.400Z,10.7
2022-11-05T11:16:10.088Z,10.7
2022-11-05T11:17:10.094Z,10.7
2022-11-05T11:18:10.094Z,10.7
2022-11-05T11:19:00.598Z,10.8
2022-11-05T11:20:10.091Z,10.8
2022-11-05T11:21:05.104Z,10.8
2022-11-05T11:22:03.395Z,10.8
2022-11-05T11:23:10.456Z,10.9
2022-11-05T11:24:01.670Z,10.9
2022-11-05T11:25:10.107Z,10.8
2022-11-05T11:26:00.585Z,10.8
2022-11-05T11:27:01.232Z,10.9
2022-11-05T11:28:01.676Z,10.9
2022-11-05T11:29:01.158Z,10.9
2022-11-05T11:30:01.471Z,10.9
2022-11-05T11:31:10.093Z,10.9
2022-11-05T11:32:00.495Z,10.9
2022-11-05T11:33:05.670Z,11.0
2022-11-05T11:34:02.290Z,11.0
2022-11-05T11:35:00.412Z,10.9
2022-11-05T11:36:00.246Z,10.9
2022-11-05T11:37:08.702Z,10.9
2022-11-05T11:38:00.183Z,10.9
2022-11-05T11:39:02.039Z,11.0
2022-11-05T11:40:03.277Z,11.0
2022-11-05T11:41:10.093Z,11.0
2022-11-05T11:42:04.340Z,11.0
2022-11-05T11:43:02.876Z,11.1
2022-11-05T11:44:05.346Z,11.1
2022-11-05T11:45:04.256Z,11.1
2022-11-05T11:46:05.359Z,11.1
2022-11-05T11:47:02.120Z,11.0
2022-11-05T11:48:01.200Z,11.0
2022-11-05T11:49:00.221Z,11.0
2022-11-05T11:50:00.698Z,11.0
2022-11-05T11:51:10.094Z,10.9
2022-11-05T11:52:03.395Z,10.9
2022-11-05T11:53:10.304Z,11.0
2022-11-05T11:54:00.639Z,11.0
2022-11-05T11:55:10.097Z,11.0
2022-11-05T11:56:03.187Z,11.0
2022-11-05T11:57:00.526Z,10.9
2022-11-05T11:58:10.033Z,10.9
2022-11-05T11:59:01.678Z,11.0
2022-11-05T12:00:09.240Z,11.0
2022-11-05T12:01:08.516Z,11.2
2022-11-05T12:02:10.217Z,11.2
2022-11-05T12:03:03.426Z,11.1
2022-11-05T12:04:10.098Z,11.1
2022-11-05T12:05:10.104Z,11.0
2022-11-05T12:06:10.088Z,11.0
2022-11-05T12:07:10.088Z,11.1
2022-11-05T12:08:10.095Z,11.1
2022-11-05T12:09:07.573Z,11.1
2022-11-05T12:10:00.173Z,11.1
2022-11-05T12:11:00.138Z,11.2
2022-11-05T12:12:04.330Z,11.2
2022-11-05T12:13:03.419Z,11.0
2022-11-05T12:14:03.325Z,11.0
2022-11-05T12:15:10.102Z,11.1
2022-11-05T12:16:10.088Z,11.1
2022-11-05T12:17:03.404Z,11.3
2022-11-05T12:18:01.577Z,11.3
2022-11-05T12:19:09.388Z,11.4
2022-11-05T12:20:08.139Z,11.4
2022-11-05T12:21:10.091Z,11.4
2022-11-05T12:22:06.445Z,11.4
2022-11-05T12:23:10.538Z,11.4
2022-11-05T12:24:10.095Z,11.4
2022-11-05T12:25:10.097Z,11.3
2022-11-05T12:26:06.261Z,11.3
2022-11-05T12:27:00.132Z,11.4
2022-11-05T12:28:00.141Z,11.4
2022-11-05T12:29:18.724Z,11.5
2022-11-05T12:30:03.917Z,11.5
2022-11-05T12:31:07.498Z,11.6
2022-11-05T12:32:10.093Z,11.6
2022-11-05T12:33:08.504Z,11.6
2022-11-05T12:34:10.087Z,11.6
2022-11-05T12:35:10.103Z,11.6
2022-11-05T12:36:10.092Z,11.6
2022-11-05T12:37:00.134Z,11.6
2022-11-05T12:38:00.143Z,11.6
2022-11-05T12:39:07.500Z,11.6
2022-11-05T12:40:05.890Z,11.6
2022-11-05T12:41:00.136Z,11.8
2022-11-05T12:42:01.125Z,11.8
2022-11-05T12:43:11.568Z,11.9
2022-11-05T12:44:08.779Z,11.9
2022-11-05T12:45:03.378Z,12.0
2022-11-05T12:46:03.432Z,12.0
2022-11-05T12:47:09.987Z,12.0
2022-11-05T12:48:00.136Z,12.0
2022-11-05T12:49:10.091Z,12.0
2022-11-05T12:50:07.226Z,12.0
2022-11-05T12:51:08.257Z,12.1
2022-11-05T12:52:09.444Z,12.1
2022-11-05T12:53:10.422Z,12.2
2022-11-05T12:54:01.159Z,12.2
2022-11-05T12:55:01.173Z,12.2
2022-11-05T12:56:03.553Z,12.2
2022-11-05T12:57:01.500Z,12.1
2022-11-05T12:58:04.852Z,12.1
2022-11-05T12:59:04.825Z,12.2
2022-11-05T13:00:00.155Z,12.2
2022-11-05T13:01:02.392Z,12.0
2022-11-05T13:02:06.109Z,12.0
2022-11-05T13:03:10.533Z,12.0
2022-11-05T13:04:01.960Z,12.0
2022-11-05T13:05:05.192Z,12.1
2022-11-05T13:06:06.079Z,12.1
2022-11-05T13:07:02.948Z,12.1
2022-11-05T13:08:08.126Z,12.1
2022-11-05T13:09:00.136Z,12.1
2022-11-05T13:10:05.057Z,12.1
2022-11-05T13:11:06.998Z,12.1
2022-11-05T13:12:03.870Z,12.1
2022-11-05T13:13:03.746Z,12.1
2022-11-05T13:14:10.114Z,12.1
2022-11-05T13:15:02.663Z,12.1
2022-11-05T13:16:03.904Z,12.1
2022-11-05T13:17:08.000Z,12.0
2022-11-05T13:18:03.269Z,12.0
2022-11-05T13:19:01.166Z,12.0
2022-11-05T13:20:05.363Z,12.0
2022-11-05T13:21:01.187Z,12.0
2022-11-05T13:22:03.087Z,12.0
2022-11-05T13:23:03.616Z,12.1
2022-11-05T13:24:09.860Z,12.1
2022-11-05T13:25:04.032Z,12.1
2022-11-05T13:26:04.865Z,12.1
2022-11-05T13:27:04.234Z,12.1
2022-11-05T13:28:03.400Z,12.1
2022-11-05T13:29:04.494Z,12.0
2022-11-05T13:30:02.619Z,12.0
2022-11-05T13:31:02.225Z,12.0
2022-11-05T13:32:08.299Z,12.0
2022-11-05T13:33:03.076Z,12.1
2022-11-05T13:34:01.745Z,12.1
2022-11-05T13:35:02.223Z,12.0
2022-11-05T13:36:05.105Z,12.0
2022-11-05T13:37:02.186Z,12.0
2022-11-05T13:38:03.359Z,12.0
2022-11-05T13:39:08.422Z,12.1